< < Back
Terminal Aerodrome Forecast


Current Version              Previous Versions:   1  2  3  4  5  6  7  8  9  

Terminal Aerodrome Forecast

848
FTUS42 KCHS 210500
TAFSAV
TAF
KSAV 210522Z 2106/2206 33005KT P6SM SCT040 BKN150
     FM211300 28007KT P6SM FEW250
     FM212200 22003KT P6SM SKC=

Latest METAR

641
SAUS80 KWBC 212000 RRC
MTRSAV
METAR KSAV 211953Z 32010KT 10SM FEW035 SCT250 31/17 A2992 RMK AO2 SLP132
T03110167 $


USA.gov is the U.S. government's official web portal to all federal, state and local government web resources and services.